Time;durP1;ratioP1;P1;durP2;ratioP2;P2;SDS_P1;SDS_P2;PMS_P1;PMS_P2;Temp;Humidity;BMP_temperature;BMP_pressure;BME280_temperature;BME280_humidity;BME280_pressure;Samples;Min_cycle;Max_cycle;Signal;HPM_P1;HPM_P2
2023/05/25 04:30:28;;;;;;;;;14.75;13.25;;;;;15.35;54.14;101920.88;5059271;27;46564;-76
2023/05/25 04:32:53;;;;;;;;;10.25;9.50;;;;;15.35;54.37;101931.69;5034379;28;46112;-74
2023/05/25 04:35:19;;;;;;;;;10.00;9.75;;;;;15.34;54.24;101932.66;5054479;28;45369;-76
2023/05/25 04:37:46;;;;;;;;;9.00;9.00;;;;;15.25;54.23;101916.84;5037212;28;45332;-75
2023/05/25 04:40:12;;;;;;;;;12.75;8.50;;;;;15.27;54.25;101927.59;5055794;28;45486;-76
2023/05/25 04:42:39;;;;;;;;;14.00;10.50;;;;;15.34;54.47;101939.88;5055624;28;46404;-75
2023/05/25 04:45:09;;;;;;;;;11.25;11.00;;;;;15.32;54.69;101942.63;5055809;28;45268;-77
2023/05/25 04:47:34;;;;;;;;;13.50;10.50;;;;;15.32;54.38;101942.63;5055762;28;45436;-76
2023/05/25 04:50:00;;;;;;;;;10.00;9.25;;;;;15.35;54.55;101947.91;5055355;28;45416;-75
2023/05/25 04:52:25;;;;;;;;;9.25;8.75;;;;;15.39;54.36;101945.94;5054638;28;45577;-77
2023/05/25 04:54:51;;;;;;;;;13.00;11.75;;;;;15.33;54.05;101939.00;5020904;28;45436;-75
2023/05/25 04:57:16;;;;;;;;;12.25;11.00;;;;;15.30;54.14;101935.56;5034044;28;45613;-74
2023/05/25 04:59:41;;;;;;;;;11.75;11.00;;;;;15.33;54.30;101948.91;5045883;28;45381;-76
2023/05/25 05:02:07;;;;;;;;;10.25;8.25;;;;;15.35;54.35;101953.31;5055242;28;46101;-75
2023/05/25 05:04:32;;;;;;;;;9.50;8.00;;;;;15.40;54.32;101958.50;5036084;28;45480;-76
2023/05/25 05:06:58;;;;;;;;;8.25;5.25;;;;;15.34;54.44;101937.16;5055622;28;45346;-76
2023/05/25 05:09:24;;;;;;;;;8.75;8.75;;;;;15.41;54.01;101952.13;5059073;28;45474;-75
2023/05/25 05:11:49;;;;;;;;;12.75;10.25;;;;;15.36;54.48;101955.06;5055583;28;45585;-77
2023/05/25 05:14:15;;;;;;;;;11.25;9.75;;;;;15.37;54.60;101956.81;5055026;28;45441;-72
2023/05/25 05:16:41;;;;;;;;;13.25;13.25;;;;;15.35;53.99;101968.66;5055437;28;45423;-74
2023/05/25 05:19:06;;;;;;;;;12.25;10.50;;;;;15.30;54.20;101963.47;5055183;28;45549;-74
2023/05/25 05:21:32;;;;;;;;;12.50;11.00;;;;;15.34;54.51;101972.28;5055066;28;45363;-71
2023/05/25 05:23:57;;;;;;;;;15.25;13.25;;;;;15.36;53.79;101973.09;5033807;28;45339;-74
2023/05/25 05:26:22;;;;;;;;;9.00;9.00;;;;;15.40;54.04;101983.69;5052874;28;45283;-74
2023/05/25 05:28:48;;;;;;;;;11.75;11.75;;;;;15.31;54.23;101959.78;5055228;28;45475;-74
2023/05/25 05:31:16;;;;;;;;;10.00;10.00;;;;;15.43;54.06;101988.09;5060878;28;45633;-74
2023/05/25 05:33:41;;;;;;;;;10.75;9.25;;;;;15.42;53.95;101986.31;5075015;28;45539;-72
2023/05/25 05:36:07;;;;;;;;;10.25;10.25;;;;;15.46;54.08;101986.13;5075755;28;45373;-77
2023/05/25 05:38:32;;;;;;;;;10.50;10.50;;;;;15.45;53.66;101987.06;5076244;28;45315;-76
2023/05/25 05:40:58;;;;;;;;;11.00;11.00;;;;;15.46;53.83;101986.13;5076553;28;46081;-78
2023/05/25 05:43:23;;;;;;;;;11.75;10.00;;;;;15.46;53.92;101982.53;5076072;28;45396;-78
2023/05/25 05:45:48;;;;;;;;;9.50;9.50;;;;;15.55;53.48;101992.09;5076062;28;45484;-77
2023/05/25 05:48:21;;;;;;;;;10.25;10.25;;;;;15.44;53.54;101968.22;5077978;28;45357;-83
2023/05/25 05:50:46;;;;;;;;;12.00;10.00;;;;;15.65;53.20;101998.81;5080387;28;46589;-76
2023/05/25 06:00:25;;;;;;;;;14.25;14.00;;;;;15.74;52.84;102020.00;4983137;28;45350;-90
2023/05/25 06:03:12;;;;;;;;;11.50;11.50;;;;;15.78;52.84;102016.22;5066441;28;45338;-88
2023/05/25 06:30:32;;;;;;;;;12.50;11.50;;;;;15.98;52.27;102013.44;4822375;29;45851;-87
2023/05/25 06:54:35;;;;;;;;;;;;;;;;;;;;;
2023/05/25 07:00:49;;;;;;;;;9.50;9.00;;;;;16.27;49.87;102022.81;4919953;28;45621;-85
2023/05/25 07:07:03;;;;;;;;;11.00;10.75;;;;;15.89;49.06;101924.63;4919969;28;45489;-86
2023/05/25 07:23:25;;;;;;;;;10.25;8.75;;;;;16.72;48.66;102025.09;5059362;28;45311;-86
2023/05/25 07:25:51;;;;;;;;;6.50;6.25;;;;;16.35;49.08;101947.53;5027424;28;45604;-81
2023/05/25 07:28:16;;;;;;;;;6.75;6.75;;;;;16.71;48.61;102004.38;5057301;28;45461;-86
2023/05/25 07:30:42;;;;;;;;;7.00;7.00;;;;;16.64;47.79;101990.28;5040683;28;47623;-88
2023/05/25 07:33:07;;;;;;;;;11.00;7.00;;;;;16.56;47.46;101949.16;5055290;28;48514;-83
2023/05/25 07:35:34;;;;;;;;;8.25;8.00;;;;;17.03;47.35;102013.53;5056486;28;46006;-86
2023/05/25 07:38:03;;;;;;;;;13.25;11.25;;;;;16.96;47.42;101999.44;5060546;28;45443;-83
2023/05/25 07:40:29;;;;;;;;;13.00;8.25;;;;;16.94;46.69;101981.50;5061446;28;46174;-84
2023/05/25 07:43:01;;;;;;;;;8.50;6.50;;;;;16.98;46.74;101983.13;5059379;28;47599;-86
2023/05/25 07:46:16;;;;;;;;;8.00;8.00;;;;;17.27;46.64;102019.47;5056123;28;45300;-86
2023/05/25 07:48:41;;;;;;;;;10.00;6.75;;;;;17.11;46.15;101976.06;5077403;28;45336;-82
2023/05/25 07:51:07;;;;;;;;;7.50;7.50;;;;;17.30;46.10;102003.94;5077607;28;45566;-82
2023/05/25 07:53:32;;;;;;;;;6.75;6.75;;;;;17.28;45.04;101992.31;5081583;27;46568;-84
2023/05/25 07:55:57;;;;;;;;;6.00;6.00;;;;;17.42;45.67;102006.97;5077002;27;45165;-83
2023/05/25 07:58:23;;;;;;;;;7.25;5.75;;;;;17.18;45.44;101965.81;5084644;27;45406;-84
2023/05/25 08:00:49;;;;;;;;;8.50;6.00;;;;;17.02;45.40;101927.78;5078072;28;45476;-85
2023/05/25 08:03:14;;;;;;;;;9.75;7.00;;;;;17.10;45.55;101941.78;5078141;28;46011;-85
2023/05/25 08:05:40;;;;;;;;;9.25;9.25;;;;;17.55;45.34;102017.03;5059177;28;45312;-85
2023/05/25 08:08:11;;;;;;;;;5.00;5.00;;;;;17.28;44.99;101964.31;5059955;28;45271;-84
2023/05/25 08:10:36;;;;;;;;;5.00;5.00;;;;;17.20;44.77;101955.72;5082707;27;45506;-86
2023/05/25 08:13:01;;;;;;;;;6.25;5.00;;;;;17.34;44.32;101985.69;5075369;27;45536;-81
2023/05/25 08:15:27;;;;;;;;;6.50;5.00;;;;;17.30;43.89;101979.56;5075286;28;45335;-83
2023/05/25 08:17:52;;;;;;;;;6.00;5.00;;;;;17.58;43.97;102019.59;5078023;28;45232;-81
2023/05/25 08:20:18;;;;;;;;;4.75;4.75;;;;;17.48;43.70;101999.34;5076128;28;45456;-85
2023/05/25 08:22:44;;;;;;;;;7.25;7.00;;;;;17.60;43.49;102012.25;5079529;28;45518;-82
2023/05/25 08:25:10;;;;;;;;;5.00;5.00;;;;;17.44;43.20;101978.78;5077514;28;45189;-82
2023/05/25 08:27:35;;;;;;;;;5.50;5.50;;;;;17.64;43.12;102016.56;5069345;28;45517;-82
2023/05/25 08:30:01;;;;;;;;;5.25;5.25;;;;;17.53;42.88;101993.66;5058470;28;45760;-82
2023/05/25 08:32:26;;;;;;;;;2.50;2.50;;;;;17.74;42.40;102006.97;5057608;28;47471;-75
2023/05/25 08:34:52;;;;;;;;;5.75;5.50;;;;;17.82;42.28;102020.09;5057835;28;45395;-76
2023/05/25 08:37:18;;;;;;;;;6.25;6.25;;;;;17.79;42.03;102014.84;5075811;28;45437;-76
2023/05/25 08:39:44;;;;;;;;;4.75;4.75;;;;;17.89;41.83;102016.06;5076166;28;45699;-76
2023/05/25 08:42:09;;;;;;;;;8.75;7.50;;;;;17.80;41.97;101996.72;5075833;28;45999;-75
2023/05/25 08:44:38;;;;;;;;;5.00;4.50;;;;;17.96;42.30;102005.75;5075583;28;45366;-74
2023/05/25 08:47:06;;;;;;;;;5.00;5.00;;;;;18.02;42.63;102014.44;5076276;28;45376;-74
2023/05/25 08:49:38;;;;;;;;;4.75;4.75;;;;;18.07;42.14;102015.03;5075954;28;45342;-74
2023/05/25 08:52:12;;;;;;;;;4.50;4.50;;;;;18.11;42.53;102016.63;5071851;28;46114;-75
2023/05/25 08:54:40;;;;;;;;;9.00;6.00;;;;;18.11;41.83;102029.31;5085911;27;45313;-76
2023/05/25 08:57:28;;;;;;;;;2.25;2.25;;;;;18.17;41.48;102030.81;5082553;27;45524;-74
2023/05/25 09:00:09;;;;;;;;;3.75;2.00;;;;;18.19;41.10;102027.03;5075287;28;45422;-73
2023/05/25 09:02:53;;;;;;;;;5.25;4.50;;;;;18.20;40.87;102020.66;5075610;28;45392;-75
2023/05/25 09:05:19;;;;;;;;;6.00;6.00;;;;;18.19;40.42;102012.59;5057868;28;45267;-75
2023/05/25 09:07:45;;;;;;;;;5.50;3.50;;;;;18.18;39.85;102011.72;5055520;28;45317;-73
2023/05/25 09:10:11;;;;;;;;;3.25;3.25;;;;;18.23;39.82;102017.75;5054768;28;45312;-74
2023/05/25 09:12:37;;;;;;;;;6.50;5.00;;;;;18.29;40.75;102013.81;5065303;28;46263;-74
2023/05/25 09:15:04;;;;;;;;;4.25;4.25;;;;;18.36;41.01;102021.53;5074820;28;45363;-73
2023/05/25 09:17:29;;;;;;;;;4.50;4.50;;;;;18.44;40.91;102011.09;5075651;28;45298;-75
2023/05/25 09:19:55;;;;;;;;;3.75;3.75;;;;;18.45;40.18;102021.00;5075360;28;45533;-74
2023/05/25 09:22:20;;;;;;;;;4.75;4.50;;;;;18.48;39.91;102018.06;5056645;28;47445;-74
2023/05/25 09:24:46;;;;;;;;;4.00;4.00;;;;;18.52;39.52;102011.50;5075472;28;45330;-72
2023/05/25 09:27:19;;;;;;;;;4.00;4.00;;;;;18.56;39.01;102016.75;5075822;27;45326;-76
2023/05/25 09:29:48;;;;;;;;;4.00;4.00;;;;;18.57;39.08;102004.94;5074923;28;45386;-73
2023/05/25 09:32:18;;;;;;;;;4.75;3.75;;;;;18.64;38.56;102012.63;5074841;28;45355;-74
2023/05/25 09:34:46;;;;;;;;;5.00;5.00;;;;;18.71;39.17;102011.34;5075095;28;45488;-75
2023/05/25 09:37:13;;;;;;;;;3.75;3.75;;;;;18.77;38.83;102010.97;5074580;28;45387;-73
2023/05/25 09:39:40;;;;;;;;;5.00;3.50;;;;;18.78;40.39;101999.13;5075109;28;45278;-73
2023/05/25 09:42:05;;;;;;;;;4.00;4.00;;;;;18.86;38.70;102004.09;5075266;28;45342;-74
2023/05/25 09:44:31;;;;;;;;;4.50;4.50;;;;;18.88;38.96;102004.88;5056338;28;45379;-75
2023/05/25 09:46:56;;;;;;;;;4.75;4.75;;;;;18.91;38.75;101999.25;5074908;28;45487;-74
2023/05/25 09:49:22;;;;;;;;;5.25;5.25;;;;;18.90;37.76;101998.38;5056119;28;47326;-73
2023/05/25 09:51:48;;;;;;;;;4.25;4.25;;;;;18.99;37.72;102009.66;5072261;28;45468;-74
2023/05/25 09:54:13;;;;;;;;;4.00;4.00;;;;;19.01;37.18;102011.31;5085028;27;45361;-74
2023/05/25 09:56:40;;;;;;;;;3.75;3.75;;;;;18.85;37.51;101977.88;5081117;27;45374;-74
2023/05/25 09:59:06;;;;;;;;;5.50;4.00;;;;;18.97;38.30;102003.44;5075051;27;45313;-76
2023/05/25 10:01:35;;;;;;;;;11.00;7.25;;;;;19.07;39.04;102015.47;5074910;28;45621;-83
2023/05/25 10:04:00;;;;;;;;;4.50;4.50;;;;;19.10;38.96;102020.75;5075241;28;45268;-77
2023/05/25 10:06:26;;;;;;;;;7.25;4.50;;;;;19.11;39.47;102023.38;5056677;28;45423;-77
2023/05/25 10:08:55;;;;;;;;;5.00;4.50;;;;;19.16;39.34;102017.63;5074969;28;45245;-74
2023/05/25 10:11:22;;;;;;;;;4.00;4.00;;;;;19.19;39.34;102014.75;5085419;27;45430;-75
2023/05/25 10:13:50;;;;;;;;;5.00;4.50;;;;;19.25;39.24;102022.50;5068789;28;45396;-79
2023/05/25 10:16:17;;;;;;;;;3.50;3.50;;;;;19.28;39.29;102025.06;5073762;28;45414;-76
2023/05/25 10:19:02;;;;;;;;;6.00;6.00;;;;;19.19;39.43;102001.16;5068318;28;45431;-72
2023/05/25 10:21:30;;;;;;;;;18.75;11.25;;;;;19.31;38.58;102003.09;5073305;28;45648;-75
2023/05/25 10:24:14;;;;;;;;;8.50;5.00;;;;;19.36;39.60;102010.97;5074554;28;45359;-74
2023/05/25 10:26:48;;;;;;;;;5.75;5.75;;;;;19.39;38.27;102005.34;5074536;27;45331;-78
2023/05/25 10:29:15;;;;;;;;;3.25;3.00;;;;;19.36;37.24;102010.97;5068482;28;45430;-79
2023/05/25 10:31:41;;;;;;;;;10.25;8.75;;;;;19.42;37.84;102016.03;5063502;28;46428;-78
2023/05/25 10:34:07;;;;;;;;;11.75;10.25;;;;;19.46;37.51;102014.88;5056461;28;46059;-78
2023/05/25 10:36:33;;;;;;;;;4.25;4.25;;;;;19.47;37.39;102022.06;5074873;28;45423;-78
2023/05/25 10:39:01;;;;;;;;;14.75;7.00;;;;;19.46;37.45;102018.47;5044910;28;47345;-77
2023/05/25 10:41:26;;;;;;;;;6.75;5.00;;;;;19.51;37.43;102020.91;5072320;28;45990;-78
2023/05/25 10:43:52;;;;;;;;;3.75;3.75;;;;;19.56;37.52;102019.66;5067501;28;45354;-78
2023/05/25 10:46:18;;;;;;;;;12.50;10.00;;;;;19.64;37.70;102020.06;5074691;28;45554;-80
2023/05/25 10:48:49;;;;;;;;;5.50;5.50;;;;;19.69;37.40;102008.88;5074775;28;45460;-79
2023/05/25 10:51:14;;;;;;;;;8.50;5.50;;;;;19.74;36.50;102017.59;5076270;28;45274;-79
2023/05/25 10:53:44;;;;;;;;;8.25;6.75;;;;;19.81;37.35;102012.66;5070809;27;45311;-80
2023/05/25 10:56:12;;;;;;;;;6.50;4.25;;;;;19.83;36.75;102016.13;5057799;28;45526;-80
2023/05/25 10:58:43;;;;;;;;;7.75;7.75;;;;;19.72;36.94;101991.50;5072581;28;45410;-79
2023/05/25 11:01:14;;;;;;;;;6.25;4.00;;;;;19.92;37.46;102010.97;5053996;28;45435;-81
2023/05/25 11:03:42;;;;;;;;;6.00;5.00;;;;;19.96;36.54;102000.78;5054119;28;45291;-80
2023/05/25 11:06:09;;;;;;;;;3.25;3.25;;;;;19.99;37.59;102008.72;5063964;28;45342;-80
2023/05/25 11:08:53;;;;;;;;;3.00;2.25;;;;;20.08;37.08;102005.41;5074129;28;45389;-79
2023/05/25 11:11:19;;;;;;;;;6.75;4.75;;;;;20.14;37.06;101995.97;5074450;28;46023;-79
2023/05/25 11:13:46;;;;;;;;;5.25;4.25;;;;;20.18;36.61;102014.72;5063359;28;45369;-79
2023/05/25 11:16:23;;;;;;;;;5.75;5.75;;;;;20.29;37.01;102014.03;5074170;28;45430;-80
2023/05/25 11:18:53;;;;;;;;;4.75;4.75;;;;;20.28;37.15;101990.47;5055391;28;45797;-79
2023/05/25 11:21:21;;;;;;;;;4.25;4.25;;;;;20.46;35.81;102004.75;5074087;28;46442;-78
2023/05/25 11:23:53;;;;;;;;;5.00;5.00;;;;;20.54;34.86;101997.81;5068810;28;45269;-79
2023/05/25 11:26:27;;;;;;;;;5.25;5.25;;;;;20.61;34.94;102010.03;5065725;28;45560;-79
2023/05/25 11:28:53;;;;;;;;;5.75;5.00;;;;;20.67;34.96;102006.88;5075130;27;45475;-79
2023/05/25 11:31:31;;;;;;;;;4.25;4.00;;;;;20.71;34.85;102000.25;5079329;27;46469;-81
2023/05/25 11:34:01;;;;;;;;;5.00;3.50;;;;;20.76;36.21;102002.66;5074237;28;45256;-79
2023/05/25 11:36:30;;;;;;;;;5.00;5.00;;;;;20.84;35.40;101994.81;5066003;28;45361;-81
2023/05/25 11:38:56;;;;;;;;;4.00;2.00;;;;;20.97;35.71;101989.41;5067107;28;45362;-80
2023/05/25 11:41:22;;;;;;;;;7.75;6.00;;;;;21.02;34.60;101998.13;5077769;28;45407;-82
2023/05/25 11:43:49;;;;;;;;;4.25;4.25;;;;;21.12;34.39;101985.59;5075126;28;45467;-81
2023/05/25 11:46:19;;;;;;;;;4.50;4.50;;;;;21.15;34.24;101958.13;5075161;28;45330;-81
2023/05/25 11:48:54;;;;;;;;;5.00;5.00;;;;;21.26;34.62;101974.66;5069076;28;46306;-80
2023/05/25 11:51:25;;;;;;;;;3.25;3.25;;;;;21.38;34.28;101968.28;5076485;28;45508;-81
2023/05/25 11:53:50;;;;;;;;;5.25;5.25;;;;;21.57;34.52;101977.88;5074559;27;45369;-82
2023/05/25 11:56:17;;;;;;;;;4.00;4.00;;;;;21.67;33.93;101978.97;5077313;28;45380;-81
2023/05/25 11:58:46;;;;;;;;;4.25;2.75;;;;;21.74;34.08;101972.06;5077217;28;45356;-82
2023/05/25 12:01:19;;;;;;;;;3.00;3.00;;;;;21.89;33.96;101973.66;5076274;28;45334;-82
2023/05/25 12:03:46;;;;;;;;;0.50;0.00;;;;;21.92;34.01;101968.00;5077002;27;45425;-81
2023/05/25 12:06:25;;;;;;;;;3.00;3.00;;;;;22.09;34.13;101969.50;5065495;28;45249;-81
2023/05/25 12:08:50;;;;;;;;;3.50;3.50;;;;;22.16;33.67;101970.78;5064943;28;45361;-81
2023/05/25 12:11:16;;;;;;;;;4.50;3.75;;;;;22.25;34.10;101975.56;5063776;28;46488;-80
2023/05/25 12:13:41;;;;;;;;;4.75;4.75;;;;;22.31;34.14;101957.81;5068217;28;45418;-80
2023/05/25 12:16:07;;;;;;;;;6.50;3.75;;;;;22.43;33.74;101956.88;5077490;28;45415;-80
2023/05/25 12:18:33;;;;;;;;;6.25;5.00;;;;;22.65;33.29;101979.72;5059554;28;45497;-81
2023/05/25 12:20:58;;;;;;;;;4.75;2.00;;;;;22.52;32.56;101929.72;5077643;28;45388;-82
2023/05/25 12:23:24;;;;;;;;;5.00;3.75;;;;;22.74;33.32;101961.75;5076963;28;45426;-79
2023/05/25 12:26:05;;;;;;;;;4.00;4.00;;;;;22.89;33.09;101959.69;5077649;28;45335;-81
2023/05/25 12:28:30;;;;;;;;;5.00;5.00;;;;;23.08;32.77;101962.72;5077138;28;45518;-80
2023/05/25 12:30:56;;;;;;;;;2.75;2.75;;;;;23.13;32.77;101951.44;5076100;28;45313;-82
2023/05/25 12:33:21;;;;;;;;;3.00;3.00;;;;;23.16;32.32;101960.25;5052526;28;45807;-83
2023/05/25 12:35:48;;;;;;;;;2.75;2.75;;;;;23.31;32.16;101972.69;5077560;28;45498;-82
2023/05/25 12:38:18;;;;;;;;;5.00;3.00;;;;;23.26;32.58;101957.66;5059523;28;46122;-84
2023/05/25 12:40:44;;;;;;;;;5.00;5.00;;;;;23.33;32.94;101970.72;5059434;28;48296;-83
2023/05/25 12:43:10;;;;;;;;;3.50;3.50;;;;;23.01;32.76;101885.75;5077567;28;45320;-83
2023/05/25 12:45:40;;;;;;;;;2.25;2.25;;;;;23.23;32.29;101900.41;5060510;28;45372;-83
2023/05/25 12:48:06;;;;;;;;;4.00;4.00;;;;;23.57;32.03;101937.78;5080628;28;45274;-83
2023/05/25 12:50:31;;;;;;;;;4.75;3.50;;;;;23.39;31.76;101904.53;5059114;28;45272;-81
2023/05/25 12:53:02;;;;;;;;;6.00;4.00;;;;;23.65;31.59;101939.88;5057869;28;46391;-83
2023/05/25 12:55:29;;;;;;;;;3.50;3.50;;;;;23.87;31.75;101960.91;5055485;28;45439;-83
2023/05/25 12:58:00;;;;;;;;;3.00;3.00;;;;;23.93;31.35;101954.91;5077258;28;45447;-82
2023/05/25 13:00:30;;;;;;;;;2.25;2.25;;;;;24.00;31.28;101940.59;5076914;28;45570;-84
2023/05/25 13:02:56;;;;;;;;;2.75;2.75;;;;;24.29;30.50;101961.97;5071164;28;45346;-82
2023/05/25 13:05:27;;;;;;;;;2.00;1.75;;;;;24.46;30.45;101969.63;5077885;28;45342;-79
2023/05/25 13:07:54;;;;;;;;;1.75;1.75;;;;;24.47;29.64;101931.13;5060103;28;47056;-81
2023/05/25 13:10:20;;;;;;;;;3.75;3.75;;;;;24.86;29.27;101984.41;5076186;28;45561;-85
2023/05/25 13:12:49;;;;;;;;;2.25;2.25;;;;;25.00;29.26;101968.66;5051958;28;45918;-86
2023/05/25 13:15:18;;;;;;;;;2.75;2.75;;;;;24.98;29.03;101943.22;5056708;28;45394;-83
2023/05/25 13:17:44;;;;;;;;;3.00;3.00;;;;;25.13;28.98;101934.50;5076918;28;45346;-83
2023/05/25 13:20:14;;;;;;;;;2.25;2.25;;;;;25.35;28.19;101938.94;5077481;28;45415;-85
2023/05/25 13:22:43;;;;;;;;;3.75;3.75;;;;;25.24;28.00;101901.50;5058901;28;45944;-83
2023/05/25 13:25:10;;;;;;;;;4.25;3.75;;;;;25.70;27.99;101952.28;5084780;27;45275;-76
2023/05/25 13:27:40;;;;;;;;;4.25;3.50;;;;;25.81;27.93;101957.69;5075710;28;45363;-83
2023/05/25 13:30:06;;;;;;;;;4.75;4.75;;;;;25.91;28.36;101941.25;5057450;28;46171;-80
2023/05/25 13:32:33;;;;;;;;;3.00;3.00;;;;;26.00;28.23;101941.25;5082435;27;45464;-81
2023/05/25 13:34:59;;;;;;;;;3.25;3.25;;;;;26.35;27.97;101951.78;5049364;28;45409;-78
2023/05/25 13:37:26;;;;;;;;;3.75;3.75;;;;;26.41;27.51;101938.44;5055362;28;45346;-80
2023/05/25 13:39:52;;;;;;;;;5.25;4.00;;;;;26.71;27.23;101952.91;5035448;28;47076;-78
2023/05/25 13:42:18;;;;;;;;;4.00;4.00;;;;;26.68;27.69;101930.34;5036642;28;45424;-79
2023/05/25 13:44:43;;;;;;;;;8.00;3.50;;;;;26.83;27.50;101934.38;5054871;28;45312;-79
2023/05/25 13:47:08;;;;;;;;;4.00;4.00;;;;;27.06;28.33;101951.44;5070496;28;45632;-78
2023/05/25 13:49:34;;;;;;;;;5.00;4.00;;;;;27.12;27.68;101945.38;5057468;28;47164;-79
2023/05/25 13:51:59;;;;;;;;;6.50;4.00;;;;;27.12;27.02;101953.63;5071837;28;45346;-81
2023/05/25 13:54:25;;;;;;;;;6.75;4.00;;;;;27.16;26.78;101954.19;5066654;28;45276;-81
2023/05/25 13:56:50;;;;;;;;;4.75;4.75;;;;;27.09;26.71;101935.53;5074038;28;45607;-80
2023/05/25 13:59:15;;;;;;;;;5.00;4.25;;;;;27.23;26.81;101923.16;5075586;28;45311;-79
2023/05/25 14:01:41;;;;;;;;;3.75;3.75;;;;;27.53;27.30;101948.72;5056893;28;45229;-80
2023/05/25 14:04:06;;;;;;;;;6.50;4.00;;;;;27.66;26.96;101905.16;5068788;28;45569;-78
2023/05/25 14:06:33;;;;;;;;;6.75;6.00;;;;;28.19;26.32;101942.03;5054901;28;45542;-78
2023/05/25 14:08:58;;;;;;;;;5.25;5.25;;;;;28.46;25.73;101926.44;5054920;28;45927;-81
2023/05/25 14:11:25;;;;;;;;;6.75;5.50;;;;;28.88;25.81;101945.97;5054546;28;45349;-80
2023/05/25 14:13:50;;;;;;;;;6.50;3.75;;;;;29.16;25.73;101927.38;5070269;28;45359;-81
2023/05/25 14:16:16;;;;;;;;;7.00;6.00;;;;;29.59;25.54;101930.06;5060889;28;45576;-81
2023/05/25 14:18:41;;;;;;;;;5.75;5.00;;;;;29.99;24.30;101928.53;5046851;28;46453;-82
2023/05/25 14:21:06;;;;;;;;;6.25;6.00;;;;;30.21;24.08;101919.56;5055460;28;45294;-82
2023/05/25 14:23:32;;;;;;;;;6.50;6.50;;;;;30.50;24.11;101927.41;5055629;28;45261;-83
2023/05/25 14:25:57;;;;;;;;;6.75;5.50;;;;;30.84;23.61;101933.69;5057834;28;45307;-82
2023/05/25 14:28:22;;;;;;;;;6.75;4.25;;;;;31.24;23.20;101939.38;5055819;28;45977;-83
2023/05/25 14:30:48;;;;;;;;;6.00;4.75;;;;;31.45;22.98;101950.75;5071349;28;45263;-82
2023/05/25 14:33:14;;;;;;;;;8.50;4.00;;;;;31.31;23.00;101921.84;5068467;28;45328;-81
2023/05/25 14:35:41;;;;;;;;;6.00;6.00;;;;;31.38;22.63;101900.72;5074563;28;45543;-82
2023/05/25 14:38:07;;;;;;;;;6.00;5.25;;;;;31.87;22.57;101940.22;5056461;28;47198;-80
2023/05/25 14:40:32;;;;;;;;;5.00;5.00;;;;;31.89;22.87;101913.19;5056733;28;45517;-81
2023/05/25 14:42:57;;;;;;;;;6.00;5.00;;;;;32.24;23.02;101941.47;5075742;28;45842;-79
2023/05/25 14:45:23;;;;;;;;;5.00;5.00;;;;;32.39;22.34;101942.38;5075724;27;54210;-84
2023/05/25 14:47:48;;;;;;;;;5.25;3.00;;;;;32.45;22.40;101915.78;5080070;28;46668;-84
2023/05/25 14:50:14;;;;;;;;;9.00;6.00;;;;;32.33;22.31;101907.88;5060907;28;45406;-85
2023/05/25 14:52:40;;;;;;;;;5.25;5.25;;;;;32.54;22.15;101936.91;5059901;27;45657;-80
2023/05/25 14:55:06;;;;;;;;;7.75;6.25;;;;;32.33;22.41;101920.91;5082586;27;45434;-85
2023/05/25 14:57:32;;;;;;;;;5.25;4.00;;;;;32.33;22.96;101932.00;5054123;28;47021;-85
2023/05/25 14:59:57;;;;;;;;;6.00;6.00;;;;;31.86;22.61;101893.25;5055928;28;45372;-83
2023/05/25 15:02:22;;;;;;;;;4.00;4.00;;;;;31.90;22.56;101897.41;5044406;27;45589;-81
2023/05/25 15:04:48;;;;;;;;;6.50;5.00;;;;;32.14;22.52;101933.31;5074015;28;45330;-77
2023/05/25 15:07:13;;;;;;;;;5.50;4.50;;;;;32.05;23.23;101937.19;5068836;27;45433;-76
2023/05/25 15:09:39;;;;;;;;;5.75;5.75;;;;;32.17;23.25;101935.75;5084727;27;45297;-77
2023/05/25 15:12:06;;;;;;;;;5.00;5.00;;;;;32.33;23.23;101938.41;5076987;28;45441;-76
2023/05/25 15:14:32;;;;;;;;;5.25;5.25;;;;;32.43;22.96;101920.66;5067294;28;45430;-76
2023/05/25 15:16:58;;;;;;;;;4.00;4.00;;;;;32.42;22.81;101919.78;5060972;28;45646;-76
2023/05/25 15:19:25;;;;;;;;;6.00;6.00;;;;;32.53;22.37;101933.25;5064529;28;45634;-76
2023/05/25 15:21:50;;;;;;;;;6.25;3.50;;;;;32.54;21.67;101921.09;5057642;28;45636;-77
2023/05/25 15:24:15;;;;;;;;;3.50;3.50;;;;;32.55;22.08;101917.28;5057074;28;48823;-77
2023/05/25 15:26:42;;;;;;;;;10.00;5.00;;;;;32.56;22.38;101927.34;5057418;28;45390;-78
2023/05/25 15:29:08;;;;;;;;;5.00;4.00;;;;;32.59;22.30;101921.41;5057358;28;45373;-77
2023/05/25 15:31:33;;;;;;;;;6.75;4.75;;;;;32.56;22.29;101918.16;5072895;28;45375;-75
2023/05/25 15:33:59;;;;;;;;;3.00;3.00;;;;;32.40;22.48;101933.03;5050017;28;45431;-77
2023/05/25 15:36:25;;;;;;;;;5.00;5.00;;;;;32.40;22.59;101915.50;5052120;28;45327;-77
2023/05/25 15:38:50;;;;;;;;;6.25;6.00;;;;;32.33;22.40;101922.84;5057014;28;45477;-76
2023/05/25 15:41:16;;;;;;;;;4.00;4.00;;;;;32.18;22.43;101919.97;5073911;28;45812;-75
2023/05/25 15:43:41;;;;;;;;;9.75;4.25;;;;;32.17;22.92;101923.78;5077180;28;45391;-74
2023/05/25 15:46:06;;;;;;;;;7.00;5.00;;;;;31.99;22.66;101925.94;5077442;28;45935;-75
2023/05/25 15:48:33;;;;;;;;;8.00;7.00;;;;;31.89;23.45;101915.97;5078315;28;45492;-75
2023/05/25 15:50:58;;;;;;;;;6.00;5.50;;;;;31.99;23.51;101926.81;5077375;28;45879;-77
2023/05/25 15:53:23;;;;;;;;;8.25;5.25;;;;;31.98;23.01;101929.78;5083777;27;45255;-77
2023/05/25 15:55:48;;;;;;;;;9.75;5.00;;;;;31.88;23.04;101924.47;5060384;28;56003;-77
2023/05/25 15:58:16;;;;;;;;;7.75;6.00;;;;;31.78;23.24;101901.63;5064160;28;45373;-75
2023/05/25 16:00:41;;;;;;;;;5.25;4.25;;;;;31.97;22.99;101928.06;5068152;28;45441;-75
2023/05/25 16:03:07;;;;;;;;;7.50;6.00;;;;;32.06;23.67;101916.72;5077069;28;45263;-75
2023/05/25 16:05:32;;;;;;;;;6.50;6.50;;;;;32.02;23.00;101915.34;5076965;28;45391;-73
2023/05/25 16:07:57;;;;;;;;;7.00;5.00;;;;;31.93;23.17;101922.00;5077426;28;45362;-75
2023/05/25 16:10:22;;;;;;;;;8.75;6.75;;;;;31.92;23.31;101911.94;5076991;28;45454;-75
2023/05/25 16:12:48;;;;;;;;;5.50;4.75;;;;;31.98;23.11;101935.34;5070221;28;49517;-74
2023/05/25 16:15:14;;;;;;;;;5.50;5.00;;;;;31.97;22.93;101928.91;5075477;28;45902;-75
2023/05/25 16:17:39;;;;;;;;;6.00;5.25;;;;;32.02;22.48;101923.69;5076640;28;45965;-76
2023/05/25 16:20:05;;;;;;;;;7.50;5.75;;;;;32.12;22.82;101927.09;5075793;28;45790;-74
2023/05/25 16:22:30;;;;;;;;;5.75;5.75;;;;;32.02;22.81;101917.25;5076948;28;46145;-72
2023/05/25 16:24:56;;;;;;;;;6.75;5.75;;;;;31.99;22.57;101932.34;5076418;28;48645;-76
2023/05/25 16:27:21;;;;;;;;;6.75;6.50;;;;;31.83;23.33;101916.66;5076451;28;48761;-73
2023/05/25 16:29:46;;;;;;;;;6.00;6.00;;;;;31.83;22.98;101916.66;5076515;28;45347;-74
2023/05/25 16:32:12;;;;;;;;;10.75;9.25;;;;;31.74;23.14;101919.66;5074354;27;45482;-75
2023/05/25 16:34:37;;;;;;;;;6.50;6.25;;;;;31.59;23.05;101916.75;5068527;28;51901;-74
2023/05/25 16:37:03;;;;;;;;;7.00;7.00;;;;;31.44;23.99;101900.00;5069458;28;45420;-73
2023/05/25 16:39:28;;;;;;;;;8.75;7.00;;;;;31.35;23.93;101914.06;5068400;28;45493;-73
2023/05/25 16:41:54;;;;;;;;;5.75;5.75;;;;;31.34;23.94;101913.19;5064103;28;45347;-73
2023/05/25 16:44:19;;;;;;;;;6.00;6.00;;;;;31.24;23.47;101911.66;5072692;28;45859;-76
2023/05/25 16:46:44;;;;;;;;;6.25;6.25;;;;;31.06;24.04;101917.38;5076541;28;45361;-73
2023/05/25 16:49:10;;;;;;;;;8.50;7.25;;;;;30.94;24.12;101910.47;5076181;28;48797;-75
2023/05/25 16:51:36;;;;;;;;;9.00;6.00;;;;;30.95;23.92;101901.13;5068761;28;52127;-74
2023/05/25 16:54:01;;;;;;;;;4.50;4.50;;;;;30.91;24.15;101913.59;5060107;28;46093;-78
2023/05/25 16:56:27;;;;;;;;;6.50;6.50;;;;;30.78;24.18;101919.69;5065520;28;45297;-80
2023/05/25 16:58:53;;;;;;;;;6.50;6.25;;;;;30.60;24.75;101907.91;5076253;28;45305;-79
2023/05/25 17:01:18;;;;;;;;;6.25;6.25;;;;;30.52;24.71;101921.75;5076353;28;48143;-78
2023/05/25 17:03:43;;;;;;;;;8.00;7.00;;;;;30.45;25.07;101924.31;5076133;28;45397;-80
2023/05/25 17:06:09;;;;;;;;;7.50;7.50;;;;;30.28;25.58;101931.72;5076609;28;45307;-78
2023/05/25 17:08:35;;;;;;;;;6.25;6.25;;;;;30.24;25.28;101926.69;5076263;28;45264;-77